Orbital elements of COSMOS 1275 DEB
| Launched | 3 June 1981 |
| Flight ended | – |
| Launch site | Plesetsk Missile and Space Complex, Russia |
| Owner | Commonwealth of Independent States (former USSR) |
| NORAD ID | 39962 |
| Date fetched |
Epoch osculation |
Inc. [°] |
Ecc. | RA asc node [hr] |
Arg Peri. [°] |
Mean anom [°] |
Mean motion [rev/day] |
Abs. mag |
| Date fetched |
Epoch osculation |
Inc. [°] |
Ecc. | RA asc node [hr] |
Arg Peri. [°] |
Mean anom [°] |
Mean motion [rev/day] |
Abs. mag |
| 2026 May 04 17:57 | 2026 Apr 26 05:11:45 | 82.8152 | 0.00703 | 6.3645 | 200.5556 | 159.2773 | 13.80429 | – |
| 2026 May 03 17:57 | 2026 Apr 26 05:11:45 | 82.8152 | 0.00703 | 6.3645 | 200.5556 | 159.2773 | 13.80429 | – |
| 2026 May 02 17:57 | 2026 Apr 26 05:11:45 | 82.8152 | 0.00703 | 6.3645 | 200.5556 | 159.2773 | 13.80429 | – |
| 2026 May 01 17:56 | 2026 Apr 26 05:11:45 | 82.8152 | 0.00703 | 6.3645 | 200.5556 | 159.2773 | 13.80429 | – |
| 2026 Apr 30 17:56 | 2026 Apr 26 05:11:45 | 82.8152 | 0.00703 | 6.3645 | 200.5556 | 159.2773 | 13.80429 | – |
| 2026 Apr 29 17:57 | 2026 Apr 24 06:13:37 | 82.8147 | 0.00702 | 6.4638 | 206.1403 | 159.2773 | 13.80429 | – |
| 2026 Apr 28 17:56 | 2026 Apr 24 06:13:37 | 82.8147 | 0.00702 | 6.4638 | 206.1403 | 159.2773 | 13.80429 | – |
| 2026 Apr 27 17:58 | 2026 Apr 24 06:13:37 | 82.8147 | 0.00702 | 6.4638 | 206.1403 | 159.2773 | 13.80429 | – |
| 2026 Apr 26 17:58 | 2026 Apr 24 06:13:37 | 82.8147 | 0.00702 | 6.4638 | 206.1403 | 159.2773 | 13.80429 | – |
| 2026 Apr 25 17:58 | 2026 Apr 24 06:13:37 | 82.8147 | 0.00702 | 6.4638 | 206.1403 | 159.2773 | 13.80429 | – |
| 2026 Apr 24 17:59 | 2026 Apr 24 06:13:37 | 82.8147 | 0.00702 | 6.4638 | 206.1403 | 159.2773 | 13.80429 | – |
| 2026 Apr 23 17:57 | 2026 Apr 19 06:11:43 | 82.8145 | 0.00700 | 6.7175 | 220.5620 | 159.2773 | 13.80429 | – |
| 2026 Apr 22 17:57 | 2026 Apr 19 06:11:43 | 82.8145 | 0.00700 | 6.7175 | 220.5620 | 159.2773 | 13.80429 | – |
| 2026 Apr 21 17:57 | 2026 Apr 19 06:11:43 | 82.8145 | 0.00700 | 6.7175 | 220.5620 | 159.2773 | 13.80429 | – |
| 2026 Apr 20 17:57 | 2026 Apr 19 06:11:43 | 82.8145 | 0.00700 | 6.7175 | 220.5620 | 159.2773 | 13.80429 | – |
| 2026 Apr 19 17:58 | 2026 Apr 19 06:11:43 | 82.8145 | 0.00700 | 6.7175 | 220.5620 | 159.2773 | 13.80429 | – |
| 2026 Apr 18 17:56 | 2026 Apr 11 17:16:39 | 82.8143 | 0.00697 | 7.1001 | 242.0580 | 159.2773 | 13.80429 | – |
| 2026 Apr 16 17:57 | 2026 Apr 11 17:16:39 | 82.8143 | 0.00697 | 7.1001 | 242.0580 | 159.2773 | 13.80429 | – |
| 2026 Apr 14 17:57 | 2026 Apr 11 17:16:39 | 82.8143 | 0.00697 | 7.1001 | 242.0580 | 159.2773 | 13.80429 | – |
| 2026 Apr 13 17:57 | 2026 Apr 11 17:16:39 | 82.8143 | 0.00697 | 7.1001 | 242.0580 | 159.2773 | 13.80429 | – |
| 2026 Apr 12 17:57 | 2026 Apr 08 07:30:59 | 82.8140 | 0.00694 | 7.2729 | 251.7714 | 159.2773 | 13.80429 | – |
| 2026 Apr 11 17:57 | 2026 Apr 08 07:30:59 | 82.8140 | 0.00694 | 7.2729 | 251.7714 | 159.2773 | 13.80429 | – |
| 2026 Apr 10 17:58 | 2026 Apr 08 07:30:59 | 82.8140 | 0.00694 | 7.2729 | 251.7714 | 159.2773 | 13.80429 | – |
| 2026 Apr 09 18:01 | 2026 Apr 08 07:30:59 | 82.8140 | 0.00694 | 7.2729 | 251.7714 | 159.2773 | 13.80429 | – |
| 2026 Apr 08 17:57 | 2026 Apr 08 07:30:59 | 82.8140 | 0.00694 | 7.2729 | 251.7714 | 159.2773 | 13.80429 | – |
| 2026 Apr 07 17:57 | 2026 Mar 27 18:55:09 | 82.8152 | 0.00694 | 7.8577 | 284.7944 | 159.2773 | 13.80429 | – |